Time;durP1;ratioP1;P1;durP2;ratioP2;P2;SDS_P1;SDS_P2;PMS_P1;PMS_P2;Temp;Humidity;BMP_temperature;BMP_pressure;BME280_temperature;BME280_humidity;BME280_pressure;Samples;Min_cycle;Max_cycle;Signal;HPM_P1;HPM_P2
2023/02/05 00:01:28;;;;;;;12.80;10.60;;;;;;;0.38;84.66;147421.25;5023628;28;20042;-65
2023/02/05 00:03:54;;;;;;;14.63;11.20;;;;;;;0.47;84.73;147444.13;5006554;28;20372;-65
2023/02/05 00:06:20;;;;;;;15.75;12.23;;;;;;;0.44;84.08;147436.50;5023312;28;20063;-65
2023/02/05 00:08:46;;;;;;;15.73;11.52;;;;;;;0.38;83.84;147422.53;5028345;28;20033;-65
2023/02/05 00:11:11;;;;;;;12.88;10.38;;;;;;;0.34;83.64;147413.66;5018027;28;20076;-65
2023/02/05 00:13:39;;;;;;;13.00;10.18;;;;;;;0.16;84.02;147369.13;5023268;28;20148;-64
2023/02/05 00:16:17;;;;;;;14.20;10.80;;;;;;;0.20;84.67;147376.75;5022817;28;20029;-65
2023/02/05 00:18:43;;;;;;;12.90;10.27;;;;;;;0.33;84.45;147411.09;5023083;28;20065;-65
2023/02/05 00:21:09;;;;;;;13.00;9.98;;;;;;;0.33;83.86;147411.09;5022501;28;20037;-65
2023/02/05 00:23:36;;;;;;;14.40;11.07;;;;;;;0.40;84.08;147426.34;5022879;28;20254;-65
2023/02/05 00:26:03;;;;;;;14.55;11.23;;;;;;;0.35;83.84;147414.91;5022857;28;20103;-65
2023/02/05 00:28:34;;;;;;;16.02;10.85;;;;;;;0.19;84.14;147374.22;5023658;28;20072;-65
2023/02/05 00:31:05;;;;;;;14.63;10.15;;;;;;;0.38;84.01;147421.25;5022736;28;20560;-65
2023/02/05 00:33:31;;;;;;;14.75;10.35;;;;;;;0.43;83.56;147435.25;5023582;28;20206;-65
2023/02/05 00:35:56;;;;;;;16.95;11.23;;;;;;;0.28;83.21;147397.09;5022417;28;20033;-65
2023/02/05 00:38:22;;;;;;;16.45;11.38;;;;;;;0.23;84.14;147385.66;5022830;28;20048;-66
2023/02/05 00:40:47;;;;;;;16.45;11.85;;;;;;;0.07;83.66;147346.25;5022248;28;20042;-66
2023/02/05 00:43:13;;;;;;;18.25;12.70;;;;;;;-0.03;83.79;147320.78;5022671;28;20336;-66
2023/02/05 00:45:38;;;;;;;18.88;12.32;;;;;;;0.07;84.11;147344.97;5022849;28;20037;-66
2023/02/05 00:48:04;;;;;;;21.15;15.43;;;;;;;-0.11;83.64;147300.50;5025541;28;20044;-65
2023/02/05 00:50:31;;;;;;;20.45;15.05;;;;;;;-0.04;84.51;147319.53;5042242;28;20041;-66
2023/02/05 00:52:57;;;;;;;22.45;15.23;;;;;;;0.09;84.63;147351.31;5042533;28;20064;-65
2023/02/05 00:55:22;;;;;;;27.90;17.40;;;;;;;-0.10;83.67;147303.00;5042927;28;20022;-65
2023/02/05 00:57:48;;;;;;;21.50;16.05;;;;;;;0.10;84.36;147353.88;5042590;28;20408;-65
2023/02/05 01:00:14;;;;;;;25.92;17.02;;;;;;;-0.20;84.29;147278.84;5042767;28;20025;-65
2023/02/05 01:02:40;;;;;;;26.13;18.05;;;;;;;-0.09;84.15;147306.81;5042548;28;20089;-66
2023/02/05 01:05:06;;;;;;;25.70;17.67;;;;;;;-0.06;83.73;147314.47;5042427;28;20229;-65
2023/02/05 01:07:32;;;;;;;25.80;19.13;;;;;;;-0.06;83.68;147313.16;5042423;28;20060;-65
2023/02/05 01:09:58;;;;;;;26.63;18.92;;;;;;;-0.06;83.66;147313.16;5042613;28;20032;-65
2023/02/05 01:12:24;;;;;;;25.80;18.30;;;;;;;-0.02;83.40;147324.59;5042592;28;20026;-66
2023/02/05 01:14:49;;;;;;;27.33;19.00;;;;;;;-0.08;83.78;147308.09;5041996;28;20233;-65
2023/02/05 01:17:15;;;;;;;27.65;18.45;;;;;;;-0.03;82.79;147320.78;5042223;28;20025;-65
2023/02/05 01:19:41;;;;;;;24.67;19.10;;;;;;;0.05;83.43;147341.16;5049300;28;20104;-65
2023/02/05 01:22:07;;;;;;;25.95;17.55;;;;;;;0.01;82.88;147330.97;5047776;28;20040;-66
2023/02/05 01:24:34;;;;;;;24.80;17.75;;;;;;;0.07;82.79;147344.97;5042610;28;20024;-65
2023/02/05 01:26:59;;;;;;;24.48;16.83;;;;;;;0.07;83.04;147344.97;5041856;28;20036;-65
2023/02/05 01:29:26;;;;;;;21.60;15.52;;;;;;;0.08;83.84;147348.75;5042029;28;20030;-65
2023/02/05 01:31:51;;;;;;;21.98;15.77;;;;;;;0.03;82.59;147336.06;5041789;28;20044;-66
2023/02/05 01:34:17;;;;;;;19.33;14.60;;;;;;;0.15;82.75;147366.56;5042264;28;20033;-66
2023/02/05 01:36:43;;;;;;;19.98;14.77;;;;;;;0.19;82.40;147374.22;5041379;28;20029;-65
2023/02/05 01:39:09;;;;;;;21.10;14.65;;;;;;;0.16;81.93;147367.88;5042148;28;20265;-65
2023/02/05 01:41:34;;;;;;;19.08;13.60;;;;;;;0.11;82.14;147356.38;5045601;28;20037;-66
2023/02/05 01:44:12;;;;;;;18.38;13.27;;;;;;;0.10;82.12;147353.88;5041245;28;20143;-64
2023/02/05 01:46:44;;;;;;;18.08;13.48;;;;;;;0.12;82.65;147358.94;5041567;28;20045;-66
2023/02/05 01:49:22;;;;;;;16.45;12.93;;;;;;;0.06;82.40;147343.69;5029662;28;20058;-66
2023/02/05 01:51:49;;;;;;;17.73;13.15;;;;;;;0.12;82.42;147358.94;5017416;28;20046;-65
2023/02/05 01:54:17;;;;;;;17.88;12.95;;;;;;;-0.09;82.66;147305.56;5021237;28;20022;-64
2023/02/05 01:56:54;;;;;;;16.38;12.15;;;;;;;-0.12;82.62;147299.19;5020441;28;20029;-65
2023/02/05 01:59:28;;;;;;;17.25;12.57;;;;;;;-0.16;82.66;147287.75;5021506;28;20025;-64
2023/02/05 02:01:54;;;;;;;15.85;12.57;;;;;;;0.06;82.93;147343.69;5021242;28;20045;-65
2023/02/05 02:04:33;;;;;;;16.00;12.23;;;;;;;-0.12;82.84;147299.19;5022079;28;20030;-65
2023/02/05 02:07:01;;;;;;;16.95;12.20;;;;;;;-0.16;83.21;147287.75;5020811;28;20072;-65
2023/02/05 02:09:27;;;;;;;15.52;11.73;;;;;;;-0.07;83.53;147310.63;5022062;28;20109;-66
2023/02/05 02:11:54;;;;;;;15.00;11.85;;;;;;;-0.14;83.36;147292.81;5021765;28;20026;-66
2023/02/05 02:14:20;;;;;;;15.75;11.25;;;;;;;-0.22;83.60;147273.78;5022067;28;20033;-65
2023/02/05 02:16:46;;;;;;;13.50;11.00;;;;;;;-0.21;83.67;147276.34;5021428;28;20136;-65
2023/02/05 02:19:25;;;;;;;14.43;11.07;;;;;;;-0.23;83.11;147272.53;5022113;28;20322;-65
2023/02/05 02:21:56;;;;;;;14.10;11.82;;;;;;;-0.22;83.79;147275.03;5004148;28;20068;-64
2023/02/05 02:24:28;;;;;;;15.00;10.45;;;;;;;-0.18;83.32;147285.19;5002725;28;20086;-65
2023/02/05 02:27:09;;;;;;;14.00;10.98;;;;;;;-0.10;83.55;147303.00;5017620;28;20080;-65
2023/02/05 02:29:58;;;;;;;12.20;10.63;;;;;;;-0.15;82.99;147291.56;5021686;28;20061;-65
2023/02/05 02:32:36;;;;;;;13.43;10.63;;;;;;;-0.21;83.06;147276.34;5021014;28;20045;-65
2023/02/05 02:35:16;;;;;;;12.45;10.18;;;;;;;-0.37;83.57;147236.88;5021210;28;20044;-66
2023/02/05 02:38:06;;;;;;;14.40;11.02;;;;;;;-0.31;83.46;147252.19;5021287;28;20037;-66
2023/02/05 02:40:41;;;;;;;15.07;11.15;;;;;;;-0.50;83.10;147203.88;5021562;28;20036;-65
2023/02/05 02:43:18;;;;;;;15.40;11.35;;;;;;;-0.40;84.15;147230.56;5021709;28;20038;-66
2023/02/05 02:46:07;;;;;;;15.00;10.93;;;;;;;-0.78;84.28;147135.28;5021436;28;20048;-65
2023/02/05 02:48:37;;;;;;;13.38;10.98;;;;;;;-0.30;83.94;147253.44;5019885;28;20049;-64
2023/02/05 02:51:06;;;;;;;13.20;10.30;;;;;;;-0.40;83.00;147229.28;5016669;28;20521;-66
2023/02/05 02:53:39;;;;;;;13.38;10.25;;;;;;;-0.47;82.29;147212.78;5021361;28;20109;-65
2023/02/05 02:56:06;;;;;;;11.80;9.07;;;;;;;-0.43;82.46;147222.97;5021105;28;20041;-65
2023/02/05 02:58:39;;;;;;;12.10;9.52;;;;;;;-0.39;82.62;147231.81;5021916;28;20034;-66
2023/02/05 03:01:06;;;;;;;14.90;9.38;;;;;;;-0.44;82.23;147219.09;5020941;28;20052;-65
2023/02/05 03:03:37;;;;;;;10.93;8.90;;;;;;;-0.32;82.13;147249.63;5021523;28;20029;-65
2023/02/05 03:06:06;;;;;;;11.85;9.35;;;;;;;-0.62;81.74;147175.91;5020768;28;20084;-65
2023/02/05 03:08:55;;;;;;;11.52;9.30;;;;;;;-0.33;82.89;147245.81;5021070;28;20041;-66
2023/02/05 03:11:20;;;;;;;13.30;10.02;;;;;;;-0.39;81.86;147231.81;5024697;28;20043;-65
2023/02/05 03:13:47;;;;;;;13.30;9.32;;;;;;;-0.29;81.99;147257.25;5024891;28;20052;-66
2023/02/05 03:16:14;;;;;;;10.95;9.40;;;;;;;-0.48;82.33;147210.22;5024231;28;20026;-65
2023/02/05 03:18:40;;;;;;;13.07;9.70;;;;;;;-0.39;81.76;147231.81;5024995;28;20026;-65
2023/02/05 03:21:17;;;;;;;11.65;9.32;;;;;;;-0.41;81.50;147226.78;5024487;28;20032;-66
2023/02/05 03:23:43;;;;;;;13.02;10.13;;;;;;;-0.40;81.27;147229.28;5024633;28;20032;-65
2023/02/05 03:26:25;;;;;;;12.77;9.48;;;;;;;-0.49;81.00;147207.69;5023775;28;20034;-64
2023/02/05 03:28:51;;;;;;;;;;;;;;;-0.50;80.76;147203.88;5024278;28;20111;-64
2023/02/05 03:31:25;;;;;;;12.45;9.48;;;;;;;-0.36;81.57;147239.44;5005637;28;20274;-64
2023/02/05 03:34:03;;;;;;;10.68;8.63;;;;;;;-0.35;80.67;147243.25;5024235;28;20034;-65
2023/02/05 03:36:47;;;;;;;11.73;8.95;;;;;;;-0.26;80.99;147264.84;5005756;28;20061;-65
2023/02/05 03:39:35;;;;;;;10.50;8.75;;;;;;;-0.29;81.30;147255.97;5023662;28;20049;-65
2023/02/05 03:42:33;;;;;;;12.25;9.48;;;;;;;-0.32;81.81;147249.63;5023432;28;20034;-65
2023/02/05 03:44:59;;;;;;;11.43;8.32;;;;;;;-0.26;80.81;147263.59;5024227;28;20034;-64
2023/02/05 03:47:30;;;;;;;12.20;8.90;;;;;;;-0.22;80.42;147275.03;5023474;28;20034;-64
2023/02/05 03:50:03;;;;;;;11.18;8.98;;;;;;;-0.44;80.65;147219.09;5023418;28;20046;-65
2023/02/05 03:52:37;;;;;;;13.48;9.38;;;;;;;-0.27;80.90;147262.34;5021432;28;20033;-65
2023/02/05 03:55:22;;;;;;;12.30;9.43;;;;;;;-0.35;79.95;147243.25;5023722;28;20226;-65
2023/02/05 03:58:11;;;;;;;12.32;9.52;;;;;;;-0.36;80.49;147240.75;5022391;28;20257;-65
2023/02/05 04:00:39;;;;;;;11.68;8.93;;;;;;;-0.43;80.27;147221.66;5016307;28;20029;-65
2023/02/05 04:03:05;;;;;;;11.68;9.15;;;;;;;-0.31;80.49;147252.19;5023626;28;20030;-65
2023/02/05 04:05:30;;;;;;;12.15;8.98;;;;;;;-0.49;81.41;147206.44;5023563;28;20202;-65
2023/02/05 04:07:56;;;;;;;12.93;9.10;;;;;;;-0.29;80.65;147255.97;5024007;28;20030;-66
2023/02/05 04:10:22;;;;;;;11.38;9.25;;;;;;;-0.38;80.99;147234.38;5006517;28;20025;-66
2023/02/05 04:12:47;;;;;;;13.18;9.48;;;;;;;-0.39;80.22;147231.81;5023032;28;20120;-65
2023/02/05 04:15:13;;;;;;;11.80;8.63;;;;;;;-0.30;80.23;147254.72;5023160;28;20030;-65
2023/02/05 04:17:39;;;;;;;11.52;9.10;;;;;;;-0.30;80.00;147254.72;5023032;28;20114;-66
2023/02/05 04:20:06;;;;;;;11.75;9.38;;;;;;;-0.34;80.13;147244.56;5023108;28;20038;-65
2023/02/05 04:22:32;;;;;;;11.85;9.38;;;;;;;-0.29;80.47;147257.25;5023438;28;20093;-65
2023/02/05 04:24:57;;;;;;;11.35;8.90;;;;;;;-0.32;80.26;147249.63;5023444;28;20026;-64
2023/02/05 04:27:23;;;;;;;11.30;8.90;;;;;;;-0.31;80.18;147252.19;5023352;28;20093;-64
2023/02/05 04:29:49;;;;;;;11.65;9.35;;;;;;;-0.32;80.01;147248.38;5023473;28;20042;-64
2023/02/05 04:32:14;;;;;;;12.13;8.98;;;;;;;-0.36;80.27;147240.75;5023132;28;20033;-65
2023/02/05 04:34:40;;;;;;;12.20;8.65;;;;;;;-0.42;80.35;147224.22;5023511;28;20026;-65
2023/02/05 04:37:05;;;;;;;11.55;8.85;;;;;;;-0.41;80.63;147226.78;5022756;28;20025;-65
2023/02/05 04:39:31;;;;;;;10.32;8.45;;;;;;;-0.43;80.01;147222.97;5006018;28;20064;-64
2023/02/05 04:41:57;;;;;;;11.43;8.88;;;;;;;-0.44;79.79;147219.09;5014214;28;20026;-64
2023/02/05 04:44:23;;;;;;;10.65;8.50;;;;;;;-0.55;80.53;147192.44;5023462;28;20029;-64
2023/02/05 04:46:48;;;;;;;12.48;8.75;;;;;;;-0.48;79.73;147210.22;5022559;28;20124;-64
2023/02/05 04:49:14;;;;;;;12.88;9.32;;;;;;;-0.50;81.03;147205.13;5014738;28;20068;-64
2023/02/05 04:51:39;;;;;;;11.32;9.13;;;;;;;-0.41;80.51;147228.03;5018135;28;20218;-65
2023/02/05 04:54:05;;;;;;;10.95;8.32;;;;;;;-0.37;79.44;147238.19;5022578;28;20033;-65
2023/02/05 04:56:31;;;;;;;10.73;8.75;;;;;;;-0.37;79.05;147236.88;5023008;28;20037;-65
2023/02/05 04:58:56;;;;;;;14.57;9.48;;;;;;;-0.35;78.91;147242.00;5022867;28;20030;-64
2023/02/05 05:01:22;;;;;;;13.40;9.07;;;;;;;-0.34;79.19;147244.56;5005194;28;20032;-64
2023/02/05 05:03:49;;;;;;;12.70;8.68;;;;;;;-0.30;78.05;147254.72;4988963;28;20041;-66
2023/02/05 05:06:16;;;;;;;11.70;8.27;;;;;;;-0.28;78.77;147259.78;5022064;28;20542;-64
2023/02/05 05:08:42;;;;;;;10.10;8.18;;;;;;;-0.23;78.84;147271.22;5022872;28;20215;-63
2023/02/05 05:11:11;;;;;;;9.73;7.78;;;;;;;-0.33;78.83;147245.81;5022526;28;20026;-64
2023/02/05 05:13:37;;;;;;;10.35;7.95;;;;;;;-0.20;78.66;147280.13;5022834;28;20072;-64
2023/02/05 05:16:04;;;;;;;10.77;8.07;;;;;;;-0.26;78.37;147263.59;5006636;28;20034;-64
2023/02/05 05:18:30;;;;;;;10.10;7.90;;;;;;;-0.24;78.43;147269.97;5022752;28;20037;-64
2023/02/05 05:20:56;;;;;;;9.98;7.07;;;;;;;-0.18;79.08;147283.94;5022279;28;20037;-65
2023/02/05 05:23:22;;;;;;;9.98;7.30;;;;;;;-0.18;78.62;147283.94;5022600;28;20072;-65
2023/02/05 05:25:48;;;;;;;10.30;7.68;;;;;;;-0.25;77.83;147266.16;5021827;28;20033;-65
2023/02/05 05:28:15;;;;;;;10.68;7.88;;;;;;;-0.36;78.38;147240.75;5021474;28;20040;-65
2023/02/05 05:30:43;;;;;;;10.43;7.63;;;;;;;-0.43;77.97;147221.66;5024478;28;20040;-63
2023/02/05 05:33:09;;;;;;;10.52;7.63;;;;;;;-0.23;78.67;147271.22;5003500;28;20075;-64
2023/02/05 05:35:35;;;;;;;8.60;7.47;;;;;;;-0.19;78.50;147282.66;5002330;28;20049;-64
2023/02/05 05:38:01;;;;;;;11.45;8.45;;;;;;;-0.19;78.62;147281.41;5022163;28;20038;-65
2023/02/05 05:45:58;;;;;;;9.88;7.78;;;;;;;-0.25;77.44;147266.16;5021389;28;20072;-65
2023/02/05 05:48:24;;;;;;;11.75;8.25;;;;;;;-0.10;78.17;147304.31;5028049;28;20214;-66
2023/02/05 05:50:49;;;;;;;11.13;7.97;;;;;;;-0.09;77.65;147305.56;5044280;28;20025;-65
2023/02/05 05:53:15;;;;;;;9.57;7.60;;;;;;;-0.09;77.07;147305.56;5024213;28;20075;-65
2023/02/05 05:55:41;;;;;;;10.68;8.00;;;;;;;-0.09;78.08;147305.56;5041457;28;20052;-65
2023/02/05 05:58:07;;;;;;;10.60;7.97;;;;;;;-0.03;77.53;147322.09;5040593;28;20517;-66
2023/02/05 06:00:32;;;;;;;12.10;8.25;;;;;;;-0.09;77.08;147306.81;5037967;28;20096;-65
2023/02/05 06:02:58;;;;;;;11.18;7.80;;;;;;;-0.03;78.09;147320.78;5023503;28;20021;-66
2023/02/05 06:05:24;;;;;;;13.60;8.57;;;;;;;-0.10;77.47;147304.31;5041482;28;20036;-65
2023/02/05 06:07:49;;;;;;;12.13;8.52;;;;;;;-0.14;77.49;147292.81;5040900;28;20037;-66
2023/02/05 06:10:15;;;;;;;11.07;8.45;;;;;;;-0.22;77.64;147273.78;5023982;28;20094;-66
2023/02/05 06:12:40;;;;;;;13.52;8.73;;;;;;;-0.10;78.42;147304.31;5039603;28;20040;-66
2023/02/05 06:15:07;;;;;;;14.05;8.80;;;;;;;-0.01;78.34;147327.16;5060126;28;20033;-66
2023/02/05 06:17:33;;;;;;;12.82;8.52;;;;;;;-0.02;78.16;147323.34;5043788;28;20068;-69
2023/02/05 06:19:58;;;;;;;11.60;8.73;;;;;;;-0.10;78.04;147303.00;5041589;28;20026;-65
2023/02/05 06:22:24;;;;;;;11.85;8.68;;;;;;;-0.06;78.07;147314.47;5041358;28;20045;-69
2023/02/05 06:24:49;;;;;;;11.40;8.27;;;;;;;-0.03;77.64;147322.09;5041425;28;20030;-65
2023/02/05 06:27:15;;;;;;;14.05;9.10;;;;;;;-0.04;78.59;147318.28;5041438;28;20026;-66
2023/02/05 06:29:40;;;;;;;11.38;8.80;;;;;;;-0.04;77.12;147318.28;5041562;28;20021;-67
2023/02/05 06:32:06;;;;;;;12.95;9.60;;;;;;;-0.26;77.21;147264.84;5016673;28;20109;-66
2023/02/05 06:34:32;;;;;;;12.68;9.07;;;;;;;-0.40;78.08;147230.56;5044296;28;20033;-68
2023/02/05 06:36:57;;;;;;;11.45;9.00;;;;;;;-0.55;77.73;147193.69;5010914;28;20052;-65
2023/02/05 06:39:23;;;;;;;10.63;8.85;;;;;;;-0.73;77.66;147147.97;5038840;28;20025;-65
2023/02/05 06:41:48;;;;;;;12.55;8.80;;;;;;;-0.47;78.34;147211.47;5041496;28;20028;-64
2023/02/05 06:44:14;;;;;;;14.23;9.05;;;;;;;-0.57;76.85;147187.34;5051199;28;20527;-66
2023/02/05 06:46:39;;;;;;;10.65;8.82;;;;;;;-0.38;77.40;147235.63;5053858;28;20033;-66
2023/02/05 06:49:05;;;;;;;10.90;8.80;;;;;;;-0.32;78.12;147248.38;5045017;28;20176;-66
2023/02/05 06:51:30;;;;;;;13.85;9.52;;;;;;;-0.24;77.61;147269.97;5044985;28;20227;-66
2023/02/05 06:53:56;;;;;;;11.25;8.68;;;;;;;-0.34;76.80;147244.56;5045097;28;20025;-65
2023/02/05 06:56:23;;;;;;;12.65;9.48;;;;;;;-0.24;77.81;147269.97;5044753;28;20025;-66
2023/02/05 06:58:49;;;;;;;13.57;9.98;;;;;;;-0.22;78.10;147275.03;5049467;28;20024;-66
2023/02/05 07:01:15;;;;;;;13.70;10.52;;;;;;;-0.18;78.06;147285.19;5053826;28;20076;-65
2023/02/05 07:03:40;;;;;;;13.35;9.07;;;;;;;-0.10;78.35;147303.00;5027159;28;20047;-65
2023/02/05 07:06:06;;;;;;;13.63;9.75;;;;;;;0.02;77.74;147333.53;5044613;28;20032;-64
2023/02/05 07:08:32;;;;;;;11.23;8.65;;;;;;;0.07;76.83;147346.25;5027155;28;20406;-64
2023/02/05 07:10:58;;;;;;;13.50;8.45;;;;;;;0.10;76.85;147353.88;5044479;28;20049;-64
2023/02/05 07:13:24;;;;;;;13.30;9.00;;;;;;;0.14;76.55;147362.75;5044678;28;20032;-65
2023/02/05 07:15:50;;;;;;;12.32;9.23;;;;;;;0.14;76.41;147362.75;5044623;28;20097;-65
2023/02/05 07:18:15;;;;;;;10.02;8.00;;;;;;;0.08;75.45;147347.50;5044615;28;20049;-65
2023/02/05 07:20:41;;;;;;;8.63;7.03;;;;;;;0.02;75.33;147332.28;5044391;28;20127;-67
2023/02/05 07:23:07;;;;;;;10.05;7.57;;;;;;;0.00;74.98;147328.47;5044211;28;20479;-66
2023/02/05 07:25:36;;;;;;;11.70;8.30;;;;;;;0.09;74.85;147351.31;5059784;28;20060;-66
2023/02/05 07:28:06;;;;;;;11.60;8.40;;;;;;;0.09;75.18;147350.06;5044538;28;20033;-67
2023/02/05 07:30:35;;;;;;;10.27;8.25;;;;;;;0.04;76.00;147338.59;5044285;28;20302;-66
2023/02/05 07:33:02;;;;;;;10.80;8.80;;;;;;;0.14;75.82;147362.75;5010436;28;20048;-66
2023/02/05 07:35:29;;;;;;;13.05;8.70;;;;;;;0.23;76.06;147385.66;5044329;28;20045;-66
2023/02/05 07:37:54;;;;;;;10.13;8.02;;;;;;;0.29;75.31;147399.66;5049255;28;20040;-66
2023/02/05 07:40:20;;;;;;;12.55;9.30;;;;;;;0.29;75.31;147399.66;5064344;28;20025;-66
2023/02/05 07:42:46;;;;;;;13.05;9.75;;;;;;;0.29;75.50;147399.66;5044338;28;20017;-65
2023/02/05 07:45:11;;;;;;;13.52;9.30;;;;;;;0.31;75.87;147406.03;5043657;28;20341;-64
2023/02/05 07:47:37;;;;;;;11.90;8.55;;;;;;;0.39;75.77;147423.81;5043859;28;20112;-65
2023/02/05 07:50:03;;;;;;;13.10;9.63;;;;;;;0.38;75.24;147422.53;5039697;28;20057;-65
2023/02/05 07:52:29;;;;;;;14.68;9.60;;;;;;;0.42;74.71;147432.69;5023929;28;20084;-65
2023/02/05 07:54:54;;;;;;;11.18;9.38;;;;;;;0.52;75.23;147456.88;5005931;28;20026;-65
2023/02/05 07:57:20;;;;;;;14.27;9.98;;;;;;;0.49;74.27;147449.25;5023614;28;20030;-66
2023/02/05 07:59:46;;;;;;;12.10;9.05;;;;;;;0.48;74.53;147447.94;5024050;28;20052;-66
2023/02/05 08:02:11;;;;;;;12.15;9.57;;;;;;;0.60;74.33;147477.25;5006329;28;20037;-66
2023/02/05 08:04:37;;;;;;;11.38;8.85;;;;;;;0.61;74.27;147479.75;5024001;28;20034;-66
2023/02/05 08:07:02;;;;;;;10.35;8.00;;;;;;;0.64;72.88;147486.13;5023633;28;20041;-67
2023/02/05 08:09:28;;;;;;;13.43;8.75;;;;;;;0.79;73.50;147523.03;5023979;28;20460;-65
2023/02/05 08:11:53;;;;;;;14.48;9.40;;;;;;;0.71;73.04;147503.91;5030174;28;20222;-65
2023/02/05 08:14:19;;;;;;;14.80;10.30;;;;;;;0.75;73.12;147512.84;5023488;28;20034;-65
2023/02/05 08:16:45;;;;;;;11.00;9.35;;;;;;;0.67;73.16;147493.75;5006173;28;20109;-65
2023/02/05 08:19:15;;;;;;;14.27;10.35;;;;;;;0.69;72.77;147498.84;5006088;28;20093;-65
2023/02/05 08:21:42;;;;;;;12.65;10.05;;;;;;;0.61;71.86;147478.50;5032379;28;20041;-65
2023/02/05 08:24:07;;;;;;;13.75;10.18;;;;;;;0.61;73.24;147479.75;5023501;28;20033;-65
2023/02/05 08:26:33;;;;;;;13.13;10.27;;;;;;;0.64;72.74;147487.41;5025565;28;20029;-63
2023/02/05 08:28:59;;;;;;;13.77;10.13;;;;;;;0.68;72.43;147497.59;5031646;28;20036;-64
2023/02/05 08:31:24;;;;;;;13.52;9.82;;;;;;;0.69;72.52;147498.84;5028758;28;20032;-66
2023/02/05 08:33:53;;;;;;;12.00;9.55;;;;;;;0.47;71.45;147445.44;5033168;28;20302;-66
2023/02/05 08:36:20;;;;;;;12.50;9.52;;;;;;;0.58;72.00;147470.88;5031005;28;20033;-64
2023/02/05 08:38:46;;;;;;;14.43;10.18;;;;;;;0.69;71.56;147500.09;5032747;28;20029;-65
2023/02/05 08:41:12;;;;;;;12.88;9.57;;;;;;;0.84;72.33;147535.72;5012866;28;20033;-66
2023/02/05 08:43:42;;;;;;;12.60;9.80;;;;;;;1.04;72.56;147585.34;5032177;28;20037;-65
2023/02/05 08:46:10;;;;;;;14.33;11.03;;;;;;;1.29;71.37;147647.72;5027186;28;20048;-67
2023/02/05 08:48:35;;;;;;;15.85;9.70;;;;;;;1.14;70.87;147610.84;5036475;28;20068;-65
2023/02/05 08:51:02;;;;;;;13.00;9.60;;;;;;;1.41;71.50;147677.03;5042248;28;20104;-65
2023/02/05 08:53:29;;;;;;;12.52;9.13;;;;;;;1.55;70.14;147712.66;5024701;28;20045;-67
2023/02/05 08:55:59;;;;;;;11.02;8.55;;;;;;;1.87;70.17;147790.31;5042322;28;20092;-66
2023/02/05 08:58:26;;;;;;;12.75;9.32;;;;;;;1.91;68.87;147800.53;5042893;28;20037;-65
2023/02/05 09:00:52;;;;;;;13.00;9.10;;;;;;;2.17;68.87;147864.19;5042134;28;20032;-65
2023/02/05 09:03:18;;;;;;;13.20;8.60;;;;;;;2.40;68.42;147921.50;5042246;28;20080;-66
2023/02/05 09:05:43;;;;;;;8.80;7.13;;;;;;;2.31;66.99;147899.84;5041939;28;20049;-66
2023/02/05 09:08:09;;;;;;;10.57;7.22;;;;;;;2.23;67.80;147880.72;5048174;28;20032;-66
2023/02/05 09:10:35;;;;;;;10.93;7.50;;;;;;;2.07;66.59;147841.25;5059804;28;20028;-66
2023/02/05 09:13:00;;;;;;;9.80;7.80;;;;;;;2.11;67.97;147848.88;5041479;28;20022;-66
2023/02/05 09:15:26;;;;;;;12.65;8.38;;;;;;;1.93;68.47;147805.59;5058506;28;20021;-65
2023/02/05 09:17:51;;;;;;;8.95;6.95;;;;;;;1.99;67.62;147820.84;5044905;28;20071;-67
2023/02/05 09:20:17;;;;;;;10.00;7.13;;;;;;;1.92;68.33;147803.03;5054610;28;20025;-66
2023/02/05 09:22:43;;;;;;;10.07;7.10;;;;;;;1.79;67.96;147771.19;5042061;28;20348;-65
2023/02/05 09:25:09;;;;;;;8.82;6.85;;;;;;;1.41;67.95;147677.03;5042236;28;20030;-66
2023/02/05 09:27:34;;;;;;;10.20;6.97;;;;;;;1.44;68.40;147684.66;5042071;28;20032;-66
2023/02/05 09:30:00;;;;;;;10.00;7.15;;;;;;;1.53;68.00;147706.28;5041874;28;20037;-66
2023/02/05 09:32:26;;;;;;;8.82;6.03;;;;;;;1.53;69.10;147707.53;5038861;28;20161;-65
2023/02/05 09:34:51;;;;;;;9.98;6.50;;;;;;;1.35;69.20;147661.72;5042022;28;20092;-65
2023/02/05 09:37:17;;;;;;;9.15;6.35;;;;;;;1.52;68.80;147704.97;5024397;28;20029;-65
2023/02/05 09:39:42;;;;;;;8.68;6.18;;;;;;;1.60;68.88;147722.84;5042019;28;20032;-65
2023/02/05 09:42:39;;;;;;;9.23;6.20;;;;;;;1.53;69.12;147707.53;5041727;28;20037;-68
2023/02/05 09:45:37;;;;;;;9.88;6.53;;;;;;;1.53;68.54;147707.53;5041671;28;20105;-66
2023/02/05 09:48:24;;;;;;;8.93;6.60;;;;;;;1.46;69.71;147689.72;5041187;28;20045;-68
2023/02/05 09:50:50;;;;;;;9.10;6.25;;;;;;;1.57;68.83;147716.47;5041409;28;20048;-67
2023/02/05 09:53:18;;;;;;;8.32;6.63;;;;;;;1.44;68.11;147684.66;5041687;28;20065;-67
2023/02/05 09:55:46;;;;;;;15.15;7.13;;;;;;;1.47;68.73;147690.97;5041297;28;20049;-67
2023/02/05 09:58:26;;;;;;;9.90;6.78;;;;;;;1.48;68.42;147693.53;5041739;28;20250;-67
2023/02/05 10:01:01;;;;;;;8.43;5.95;;;;;;;1.50;67.74;147699.91;5029231;28;20053;-67
2023/02/05 10:03:41;;;;;;;9.50;6.88;;;;;;;1.41;67.89;147675.72;5041724;28;20092;-69
2023/02/05 10:06:10;;;;;;;8.32;6.75;;;;;;;1.67;67.90;147740.69;5041133;28;20214;-69
2023/02/05 10:08:35;;;;;;;10.93;6.82;;;;;;;1.76;67.88;147763.56;5041504;28;20333;-67
2023/02/05 10:11:05;;;;;;;9.38;7.05;;;;;;;1.85;68.47;147786.50;5047730;28;20053;-69
2023/02/05 10:13:35;;;;;;;7.80;5.30;;;;;;;1.39;65.97;147671.91;5050134;28;20029;-68
2023/02/05 10:16:22;;;;;;;8.75;5.40;;;;;;;1.35;68.56;147661.72;5043297;28;20025;-68
2023/02/05 10:19:02;;;;;;;7.88;5.60;;;;;;;1.42;68.01;147679.53;5050606;28;20272;-68
2023/02/05 10:21:54;;;;;;;5.55;4.60;;;;;;;1.30;67.06;147650.28;5053813;28;20036;-67
2023/02/05 10:24:54;;;;;;;7.00;5.40;;;;;;;1.13;67.52;147607.00;5023483;28;20099;-69
2023/02/05 10:27:22;;;;;;;6.30;4.43;;;;;;;1.17;66.99;147618.47;5049171;28;20037;-67
2023/02/05 10:29:56;;;;;;;6.85;4.22;;;;;;;0.75;67.74;147514.09;5045159;28;20048;-68
2023/02/05 10:32:27;;;;;;;7.30;4.72;;;;;;;0.97;67.76;147567.53;5027045;28;20242;-67
2023/02/05 10:34:58;;;;;;;6.53;5.00;;;;;;;1.12;67.97;147605.72;5045210;28;20048;-68
2023/02/05 10:37:49;;;;;;;7.32;4.57;;;;;;;1.13;68.05;147608.28;5045193;28;20036;-68
2023/02/05 10:40:20;;;;;;;7.50;5.18;;;;;;;1.12;67.67;147605.72;5034188;28;20033;-68
2023/02/05 10:42:53;;;;;;;6.85;5.35;;;;;;;1.17;67.11;147617.22;5044482;28;20037;-68
2023/02/05 10:45:19;;;;;;;7.07;4.95;;;;;;;1.30;68.08;147650.28;5044678;28;20026;-67
2023/02/05 10:48:22;;;;;;;7.78;5.22;;;;;;;1.26;68.26;147638.84;5044516;28;20029;-68
2023/02/05 10:50:59;;;;;;;7.10;5.07;;;;;;;1.13;68.66;147607.00;5026907;28;20040;-67
2023/02/05 10:53:27;;;;;;;9.07;5.50;;;;;;;1.31;68.29;147651.53;5044654;28;20092;-67
2023/02/05 10:55:54;;;;;;;7.43;5.55;;;;;;;1.43;67.20;147682.09;5026490;28;20026;-67
2023/02/05 10:58:37;;;;;;;6.45;5.18;;;;;;;1.69;67.98;147745.75;5045148;28;20121;-67
2023/02/05 11:01:05;;;;;;;7.47;5.40;;;;;;;1.44;67.34;147684.66;5033651;28;20206;-67
2023/02/05 11:03:32;;;;;;;7.97;4.85;;;;;;;1.53;66.58;147707.53;5044609;28;20025;-67
2023/02/05 11:05:58;;;;;;;6.85;4.68;;;;;;;1.37;66.99;147666.84;5044423;28;20206;-66
2023/02/05 11:08:33;;;;;;;7.10;5.45;;;;;;;1.52;66.75;147703.72;5044670;28;20032;-68
2023/02/05 11:10:59;;;;;;;7.03;4.00;;;;;;;1.37;66.26;147668.09;5044207;28;20033;-67
2023/02/05 11:13:26;;;;;;;4.88;4.28;;;;;;;1.53;66.70;147706.28;5044337;28;20360;-67
2023/02/05 11:16:07;;;;;;;6.10;4.97;;;;;;;1.68;67.24;147744.50;5043750;28;20044;-67
2023/02/05 11:18:40;;;;;;;7.10;5.10;;;;;;;1.63;67.24;147731.75;5044659;28;20029;-68
2023/02/05 11:21:08;;;;;;;7.22;5.00;;;;;;;1.50;66.56;147699.91;5044041;28;20052;-67
2023/02/05 11:23:41;;;;;;;6.07;4.63;;;;;;;1.47;66.17;147692.28;5044406;28;20029;-67
2023/02/05 11:26:09;;;;;;;6.70;4.82;;;;;;;1.58;67.02;147719.00;5044047;28;20045;-68
2023/02/05 11:28:38;;;;;;;7.50;4.85;;;;;;;1.50;67.10;147698.66;5044229;28;20298;-67
2023/02/05 11:31:26;;;;;;;7.47;5.30;;;;;;;1.45;67.01;147687.16;5053349;28;20057;-67
2023/02/05 11:34:08;;;;;;;6.40;4.72;;;;;;;1.23;67.75;147631.16;5063475;28;20021;-68
2023/02/05 11:36:46;;;;;;;6.30;4.95;;;;;;;1.22;67.75;147629.91;5047195;28;20031;-67